PS53 weather

7-H Skeet Club Inc. Field
Patton, Pennsylvania, United States

Public forecast

Using degrees Fahrenheit for public forecast. Weather courtesy of forecast.io.

METAR (pilot weather report)

Closest report is John Murtha Johnstown Cambria County Airport, 22.6 nm (41.8 km) SSW. Retrieved 2019/05/19 18:02 UTC (6 minutes ago):

KJST 191802Z AUTO 23008KT 10SM FEW018 SCT110 25/19 A2998 RMK AO2 LTG DSNT N AND S TSE00 P0001 T02500189

TAF (pilot weather forecast)

Closest forecast is John Murtha Johnstown Cambria County Airport, 22.6 nm (41.8 km) SSW. Retrieved 2019/05/19 18:24 UTC (0 seconds ago):

TAF KJST 191720Z 1918/2018 21010G20KT P6SM BKN035 TEMPO 1922/1924 3SM TSRA BR OVC015CB FM200300 20008KT P6SM OVC050 FM200900 23008KT P6SM OVC015 FM201400 27010KT P6SM SCT025 BKN040